ADDS METAR Data INFO
IDs: Format: Raw Decoded Include TAF

Data at: 1014 UTC 14 Dec 2017

KN03 140955Z AUTO 00000KT 3SM -SN SCT019 SCT027 OVC033 M10/M11 A2952 RMK AO2
KN03 140935Z AUTO 00000KT 3SM -SN SCT010 BKN019 OVC035 M10/M11 A2951 RMK AO2
KN03 140915Z AUTO 00000KT 4SM -SN SCT016 OVC021 M10/M11 A2951 RMK AO2
KN03 140855Z AUTO 00000KT 3SM -SN BKN016 OVC026 M10/M11 A2950 RMK AO2
KN03 140835Z AUTO 00000KT 3SM -SN SCT013 BKN027 OVC038 M10/M11 A2950 RMK AO2
KN03 140815Z AUTO 00000KT 3SM -SN BKN013 BKN018 OVC027 M10/M11 A2950 RMK AO2
KN03 140755Z AUTO 00000KT 3SM -SN BKN016 BKN023 OVC031 M10/M11 A2950 RMK AO2
KN03 140735Z AUTO 00000KT 7SM -SN SCT006 BKN029 OVC035 M10/M11 A2950 RMK AO2
KN03 140715Z AUTO 04003KT 4SM -SN SCT010 SCT015 OVC022 M10/M11 A2950 RMK AO2
KN03 140655Z AUTO 00000KT 4SM -SN SCT013 OVC024 M10/M11 A2950 RMK AO2
KN03 140635Z AUTO 08004KT 2 1/2SM -SN BKN013 BKN021 OVC026 M10/M11 A2951 RMK AO2
KN03 140615Z AUTO 04003KT 3SM -SN OVC023 M10/M11 A2950 RMK AO2
KN03 140555Z AUTO 00000KT 4SM -SN OVC023 M10/M11 A2950 RMK AO2
KN03 140535Z AUTO 00000KT 4SM -SN SCT017 OVC023 M10/M11 A2952 RMK AO2
KN03 140515Z AUTO 00000KT 3SM -SN SCT013 BKN019 OVC027 M10/M11 A2952 RMK AO2
KN03 140455Z AUTO 00000KT 2 1/2SM -SN BKN014 BKN024 OVC030 M10/M11 A2953 RMK AO2
KN03 140435Z AUTO 00000KT 1SM SN BKN007 OVC012 M10/M11 A2954 RMK AO2
KN03 140415Z AUTO 00000KT 1 1/4SM SN OVC007 M10/M11 A2956 RMK AO2
KN03 140355Z AUTO 00000KT 1 3/4SM -SN OVC009 M11/M11 A2956 RMK AO2
KN03 140335Z AUTO 00000KT 2SM -SN BKN009 OVC015 M11/M12 A2956 RMK AO2
KN03 140315Z AUTO 00000KT 7SM -SN BKN017 BKN025 OVC036 M11/M13 A2955 RMK AO2
KN03 140255Z AUTO 00000KT 10SM SCT032 BKN050 OVC060 M12/M13 A2955 RMK AO2
KN03 140235Z AUTO 00000KT 10SM BKN065 OVC075 M12/M13 A2955 RMK AO2
KN03 140215Z AUTO 00000KT 10SM SCT055 BKN065 OVC075 M13/M14 A2955 RMK AO2
KN03 140155Z AUTO 00000KT 10SM OVC090 M13/M14 A2956 RMK AO2
KN03 140135Z AUTO 00000KT 10SM OVC100 M12/M14 A2956 RMK AO2
KN03 140115Z AUTO 00000KT 10SM BKN110 M13/M14 A2957 RMK AO2
KN03 140055Z AUTO 00000KT 10SM SCT120 M12/M14 A2957 RMK AO2
KN03 140035Z AUTO 00000KT 10SM CLR M12/M15 A2956 RMK AO2
KN03 140015Z AUTO 00000KT 10SM CLR M12/M15 A2956 RMK AO2
KN03 132355Z AUTO 00000KT 10SM CLR M11/M14 A2958 RMK AO2
KN03 132335Z AUTO 00000KT 10SM CLR M10/M14 A2959 RMK AO2
KN03 132315Z AUTO 24003KT 10SM CLR M10/M14 A2959 RMK AO2
KN03 132255Z AUTO 28004KT 10SM CLR M10/M14 A2959 RMK AO2
KN03 132235Z AUTO 24004KT 10SM CLR M10/M14 A2959 RMK AO2
KN03 132215Z AUTO 29006KT 10SM CLR M10/M14 A2959 RMK AO2
KN03 132155Z AUTO 26003KT 10SM CLR M10/M14 A2959 RMK AO2
KN03 132135Z AUTO 28007KT 258V318 10SM CLR M09/M14 A2958 RMK AO2
KN03 132115Z AUTO 29010G17KT 10SM SCT024 SCT033 M08/M14 A2958 RMK AO2
KN03 132055Z AUTO 29007G17KT 10SM SCT017 BKN022 OVC035 M08/M13 A2958 RMK AO2
KN03 132035Z AUTO 28008G17KT 7SM BKN019 BKN025 OVC032 M08/M13 A2959 RMK AO2
KN03 132015Z AUTO 28010G15KT 10SM SCT015 SCT021 BKN029 M08/M13 A2959 RMK AO2
KN03 131955Z AUTO 29010G15KT 5SM -SN SCT014 BKN027 OVC038 M08/M12 A2959 RMK AO2
KN03 131935Z AUTO 29011G21KT 7SM SCT014 BKN023 BKN030 M08/M12 A2959 RMK AO2
KN03 131915Z AUTO 27013G21KT 7SM SCT024 BKN031 M08/M13 A2959 RMK AO2
KN03 131855Z AUTO 27013G22KT 7SM BKN027 BKN035 M08/M13 A2958 RMK AO2
KN03 131835Z AUTO 28012G16KT 7SM -SN SCT018 SCT024 OVC029 M07/M12 A2957 RMK AO2
KN03 131815Z AUTO 27012G21KT 4SM HZ SCT011 BKN022 OVC029 M08/M12 A2957 RMK AO2
KN03 131755Z AUTO 29011G20KT 248V318 1 1/2SM -SN BKN013 OVC022 M09/M12 A2957 RMK AO2
KN03 131735Z AUTO 29010G19KT 2 1/2SM -SN BKN010 BKN016 OVC026 M08/M12 A2956 RMK AO2
KN03 131715Z AUTO 28012G22KT 248V318 1 1/4SM -SN SCT006 OVC010 M09/M12 A2956 RMK AO2
KN03 131655Z AUTO 27014G25KT 1SM -SN OVC008 M09/M12 A2956 RMK AO2
KN03 131635Z AUTO 27014G23KT 1SM -SN OVC008 M09/M12 A2955 RMK AO2
KN03 131615Z AUTO 27010G24KT 1SM -SN OVC008 M10/M12 A2956 RMK AO2
KN03 131555Z AUTO 27011G18KT 3/4SM -SN OVC006 M10/M12 A2955 RMK AO2
KN03 131535Z AUTO 27013G20KT 3/4SM -SN OVC009 M10/M12 A2955 RMK AO2
KN03 131515Z AUTO 28016G23KT 1SM -SN OVC009 M10/M12 A2954 RMK AO2
KN03 131455Z AUTO 28013G21KT 3/4SM -SN OVC007 M10/M12 A2953 RMK AO2
KN03 131435Z AUTO 28011G27KT 248V318 1/2SM -SN OVC005 M10/M12 A2952 RMK AO2
KN03 131415Z AUTO 29010G27KT 1/2SM -SN OVC005 M10/M12 A2952 RMK AO2
KN03 131355Z AUTO 27014G19KT 1/2SM -SN OVC005 M10/M12 A2951 RMK AO2
KN03 131335Z AUTO 28008G20KT 1 1/2SM -SN OVC007 M10/M12 A2950 RMK AO2
KN03 131315Z AUTO 27012G21KT 1 1/4SM -SN OVC007 M10/M12 A2949 RMK AO2
KN03 131255Z AUTO 28012G20KT 238V298 1 1/2SM -SN OVC007 M10/M12 A2949 RMK AO2
KN03 131235Z AUTO 28014G21KT 1 1/4SM -SN OVC007 M11/M12 A2948 RMK AO2
KN03 131215Z AUTO 29015G21KT 1 1/4SM -SN OVC007 M11/M12 A2948 RMK AO2
KN03 131155Z AUTO 27014G23KT 1 1/4SM -SN OVC007 M11/M12 A2948 RMK AO2
KN03 131135Z AUTO 28010G20KT 228V298 1 1/4SM -SN OVC007 M11/M12 A2948 RMK AO2
KN03 131115Z AUTO 28013G23KT 238V298 1 3/4SM -SN OVC009 M11/M13 A2948 RMK AO2
KN03 131055Z AUTO 27010G16KT 2SM -SN OVC009 M11/M13 A2947 RMK AO2
KN03 131035Z AUTO 27009G16KT 2 1/2SM -SN BKN013 OVC019 M11/M13 A2947 RMK AO2
KN03 131015Z AUTO 27010G19KT 2 1/2SM -SN SCT015 BKN023 OVC027 M11/M13 A2947 RMK AO2 VIS 1 1/2V4
KN03 130955Z AUTO 27013G23KT 2 1/2SM -SN BKN006 OVC026 M11/M13 A2947 RMK AO2
KN03 130935Z AUTO 26008G17KT 1 1/4SM -SN OVC006 M11/M12 A2947 RMK AO2
KN03 130915Z AUTO 26012G16KT 1 1/2SM -SN OVC008 M11/M12 A2947 RMK AO2
KN03 130855Z AUTO 27012G16KT 2SM -SN BKN008 OVC014 M10/M13 A2947 RMK AO2
KN03 130835Z AUTO 26010G16KT 3SM -SN BKN011 OVC028 M10/M13 A2947 RMK AO2
KN03 130815Z AUTO 25010G21KT 2SM -SN OVC009 M10/M13 A2947 RMK AO2
KN03 130755Z AUTO 26011G16KT 2SM -SN OVC009 M11/M13 A2947 RMK AO2
KN03 130735Z AUTO 26010G17KT 4SM -SN BKN015 BKN021 OVC027 M10/M13 A2947 RMK AO2
KN03 130715Z AUTO 26009G14KT 5SM -SN BKN027 OVC033 M10/M13 A2946 RMK AO2
KN03 130655Z AUTO 27007KT 7SM -SN SCT024 OVC031 M10/M14 A2947 RMK AO2
KN03 130635Z AUTO 26006KT 7SM SCT022 BKN026 OVC046 M10/M14 A2947 RMK AO2
KN03 130615Z AUTO 26005KT 10SM SCT015 BKN035 OVC046 M10/M15 A2947 RMK AO2
KN03 130555Z AUTO 26007KT 5SM HZ BKN015 BKN023 OVC028 M10/M14 A2947 RMK AO2
KN03 130535Z AUTO 26009G16KT 7SM SCT015 SCT020 OVC028 M10/M14 A2946 RMK AO2
KN03 130515Z AUTO 26008KT 10SM SCT028 M11/M15 A2947 RMK AO2
KN03 130455Z AUTO 25005KT 10SM CLR M11/M15 A2947 RMK AO2
KN03 130435Z AUTO 25005KT 10SM CLR M10/M15 A2948 RMK AO2
KN03 130415Z AUTO 26008G14KT 10SM CLR M10/M15 A2948 RMK AO2
KN03 130355Z AUTO 27008G14KT 10SM SCT013 SCT018 BKN029 M10/M14 A2950 RMK AO2
KN03 130335Z AUTO 28010G15KT 10SM SCT016 SCT022 BKN037 M10/M15 A2951 RMK AO2
KN03 130315Z AUTO 27011G17KT 238V338 10SM CLR M10/M16 A2952 RMK AO2
KN03 130255Z AUTO 27007KT 238V298 10SM CLR M10/M15 A2954 RMK AO2
KN03 130235Z AUTO 26005KT 10SM SCT037 M10/M15 A2954 RMK AO2
KN03 130215Z AUTO 27006KT 10SM CLR M09/M15 A2955 RMK AO2
KN03 130155Z AUTO 27003KT 10SM CLR M09/M15 A2956 RMK AO2
KN03 130135Z AUTO 27008KT 10SM CLR M08/M15 A2956 RMK AO2
KN03 130115Z AUTO 27007KT 228V308 10SM CLR M08/M15 A2956 RMK AO2
KN03 130055Z AUTO 27013G19KT 10SM CLR M08/M15 A2956 RMK AO2
KN03 130035Z AUTO 27009KT 10SM CLR M07/M12 A2955 RMK AO2
KN03 130015Z AUTO 27007G14KT 10SM SCT027 SCT037 SCT055 M07/M12 A2956 RMK AO2
KN03 122355Z AUTO 28006G14KT 10SM SCT027 SCT032 BKN037 M06/M10 A2955 RMK AO2
KN03 122335Z AUTO 27007KT 258V328 10SM SCT043 SCT055 M06/M11 A2955 RMK AO2
KN03 122315Z AUTO 29011G17KT 10SM BKN049 M05/M10 A2954 RMK AO2
KN03 122255Z AUTO 28009G19KT 10SM SCT037 OVC047 M05/M10 A2953 RMK AO2
KN03 122235Z AUTO 29012G19KT 10SM SCT037 OVC045 M05/M10 A2953 RMK AO2
KN03 122215Z AUTO 28013G19KT 7SM -SN SCT025 OVC045 M05/M08 A2952 RMK AO2